Time;durP1;ratioP1;P1;durP2;ratioP2;P2;SDS_P1;SDS_P2;PMS_P1;PMS_P2;Temp;Humidity;BMP_temperature;BMP_pressure;BME280_temperature;BME280_humidity;BME280_pressure;Samples;Min_cycle;Max_cycle;Signal;HPM_P1;HPM_P2
2024/01/28 00:00:59;;;;;;;13.63;5.05;;;;;;;;;;5101588;28;20462;-80
2024/01/28 00:03:24;;;;;;;16.58;5.32;;;;;;;;;;5081774;28;20350;-78
2024/01/28 00:05:51;;;;;;;20.77;6.10;;;;;;;;;;5100384;28;20028;-79
2024/01/28 00:08:25;;;;;;;14.43;5.70;;;;;;;;;;5098453;28;20105;-80
2024/01/28 00:11:14;;;;;;;17.20;4.72;;;;;;;;;;5096568;28;20031;-80
2024/01/28 00:13:39;;;;;;;16.58;4.95;;;;;;;;;;5095356;28;20101;-77
2024/01/28 00:16:04;;;;;;;17.75;5.35;;;;;;;;;;5096040;28;20449;-79
2024/01/28 00:18:31;;;;;;;11.60;4.38;;;;;;;;;;5103372;28;20016;-79
2024/01/28 00:20:57;;;;;;;16.92;4.65;;;;;;;;;;5102404;28;20031;-79
2024/01/28 00:23:23;;;;;;;25.80;5.85;;;;;;;;;;5099246;28;20028;-77
2024/01/28 00:25:49;;;;;;;14.68;4.68;;;;;;;;;;5099037;28;20524;-79
2024/01/28 00:28:16;;;;;;;16.73;4.85;;;;;;;;;;5099366;28;20083;-79
2024/01/28 00:30:42;;;;;;;16.23;4.80;;;;;;;;;;5103622;28;20020;-78
2024/01/28 00:33:08;;;;;;;15.60;4.95;;;;;;;;;;5100147;28;20087;-78
2024/01/28 00:35:49;;;;;;;14.27;4.93;;;;;;;;;;5101505;28;20465;-79
2024/01/28 00:38:16;;;;;;;14.10;4.38;;;;;;;;;;5101582;28;20020;-79
2024/01/28 00:40:50;;;;;;;21.63;5.38;;;;;;;;;;5084984;28;20305;-79
2024/01/28 00:43:15;;;;;;;11.98;4.22;;;;;;;;;;5113328;28;20081;-79
2024/01/28 00:45:41;;;;;;;16.35;4.55;;;;;;;;;;5112369;28;20012;-79
2024/01/28 00:48:07;;;;;;;15.75;4.15;;;;;;;;;;5110825;28;20039;-79
2024/01/28 00:50:34;;;;;;;15.82;4.47;;;;;;;;;;5109934;28;20031;-79
2024/01/28 00:53:02;;;;;;;18.27;5.13;;;;;;;;;;5114048;28;20057;-78
2024/01/28 00:55:28;;;;;;;19.40;5.22;;;;;;;;;;5111138;28;20028;-78
2024/01/28 00:58:06;;;;;;;14.93;5.18;;;;;;;;;;5111210;28;20476;-79
2024/01/28 01:00:40;;;;;;;13.55;4.20;;;;;;;;;;5109745;28;20008;-78
2024/01/28 01:03:10;;;;;;;20.17;5.82;;;;;;;;;;5109526;28;20072;-80
2024/01/28 01:05:41;;;;;;;17.50;5.38;;;;;;;;;;5108964;28;20035;-78
2024/01/28 01:08:11;;;;;;;12.30;4.30;;;;;;;;;;5109125;28;20039;-79
2024/01/28 01:10:37;;;;;;;14.45;5.30;;;;;;;;;;5109240;28;20278;-80
2024/01/28 01:13:02;;;;;;;13.73;4.03;;;;;;;;;;5103912;28;20024;-78
2024/01/28 01:15:29;;;;;;;16.58;4.72;;;;;;;;;;5099732;28;20028;-78
2024/01/28 01:17:56;;;;;;;18.45;4.90;;;;;;;;;;5098616;28;20016;-77
2024/01/28 01:20:21;;;;;;;17.75;4.93;;;;;;;;;;5099103;28;20453;-79
2024/01/28 01:22:48;;;;;;;16.63;5.60;;;;;;;;;;5099322;28;20098;-79
2024/01/28 01:25:14;;;;;;;18.55;5.93;;;;;;;;;;5100436;28;20024;-78
2024/01/28 01:27:40;;;;;;;17.75;5.50;;;;;;;;;;5077925;28;20064;-78
2024/01/28 01:30:07;;;;;;;14.00;4.80;;;;;;;;;;5081107;28;20020;-79
2024/01/28 01:32:35;;;;;;;16.50;5.10;;;;;;;;;;5080740;28;20059;-78
2024/01/28 01:35:10;;;;;;;17.38;4.45;;;;;;;;;;5078986;28;20099;-78
2024/01/28 01:37:36;;;;;;;18.00;5.43;;;;;;;;;;5080437;28;20104;-80
2024/01/28 01:40:14;;;;;;;20.63;5.63;;;;;;;;;;5079575;28;20032;-79
2024/01/28 01:42:42;;;;;;;16.85;5.10;;;;;;;;;;5080589;28;20426;-81
2024/01/28 01:45:08;;;;;;;22.95;6.55;;;;;;;;;;5078974;28;20120;-80
2024/01/28 01:47:34;;;;;;;12.35;4.68;;;;;;;;;;5078470;28;20077;-78
2024/01/28 01:50:00;;;;;;;26.25;6.30;;;;;;;;;;5076757;28;20024;-79
2024/01/28 01:52:27;;;;;;;14.82;5.00;;;;;;;;;;5080345;28;20043;-79
2024/01/28 01:54:53;;;;;;;13.90;4.80;;;;;;;;;;5086454;28;20020;-77
2024/01/28 01:57:20;;;;;;;17.67;5.57;;;;;;;;;;5085982;28;20040;-80
2024/01/28 01:59:52;;;;;;;21.63;6.10;;;;;;;;;;5087570;28;20017;-78
2024/01/28 02:02:18;;;;;;;20.55;5.53;;;;;;;;;;5085157;28;20437;-79
2024/01/28 02:04:44;;;;;;;25.17;5.40;;;;;;;;;;5084405;28;20020;-79
2024/01/28 02:07:10;;;;;;;17.55;5.82;;;;;;;;;;5082673;28;20025;-78
2024/01/28 02:09:37;;;;;;;18.80;5.57;;;;;;;;;;5080472;28;20036;-80
2024/01/28 02:12:03;;;;;;;19.88;5.00;;;;;;;;;;5075152;28;20385;-78
2024/01/28 02:14:29;;;;;;;13.27;4.82;;;;;;;;;;5093374;28;20035;-78
2024/01/28 02:16:55;;;;;;;19.85;5.32;;;;;;;;;;5093312;28;20020;-79
2024/01/28 02:19:21;;;;;;;24.08;6.10;;;;;;;;;;5089616;28;20013;-79
2024/01/28 02:21:48;;;;;;;21.55;5.63;;;;;;;;;;5091866;28;20019;-78
2024/01/28 02:24:13;;;;;;;14.52;5.65;;;;;;;;;;5089890;28;20021;-78
2024/01/28 02:26:40;;;;;;;12.73;5.55;;;;;;;;;;5088053;28;20046;-80
2024/01/28 02:29:06;;;;;;;15.32;6.97;;;;;;;;;;5103375;28;20059;-79
2024/01/28 02:31:32;;;;;;;13.32;5.53;;;;;;;;;;5107580;28;20404;-79
2024/01/28 02:33:58;;;;;;;17.80;5.20;;;;;;;;;;5103192;28;20035;-80
2024/01/28 02:36:24;;;;;;;14.27;5.07;;;;;;;;;;5102444;28;20028;-78
2024/01/28 02:38:49;;;;;;;17.23;5.72;;;;;;;;;;5082305;28;20117;-78
2024/01/28 02:41:16;;;;;;;16.17;5.57;;;;;;;;;;5109620;28;20049;-78
2024/01/28 02:43:41;;;;;;;16.52;6.50;;;;;;;;;;5099452;28;20012;-78
2024/01/28 02:46:07;;;;;;;11.73;4.53;;;;;;;;;;5082254;28;20123;-80
2024/01/28 02:48:32;;;;;;;20.15;6.47;;;;;;;;;;5099931;28;20069;-78
2024/01/28 02:50:57;;;;;;;23.52;5.43;;;;;;;;;;5081274;28;20024;-79
2024/01/28 02:53:23;;;;;;;24.70;5.78;;;;;;;;;;5095954;28;20465;-78
2024/01/28 02:55:56;;;;;;;19.30;5.57;;;;;;;;;;5079788;28;20457;-79
2024/01/28 02:58:25;;;;;;;24.05;6.53;;;;;;;;;;5098460;28;20023;-79
2024/01/28 03:00:56;;;;;;;14.20;5.55;;;;;;;;;;5098404;28;20040;-79
2024/01/28 03:03:22;;;;;;;19.60;6.63;;;;;;;;;;5098454;28;20016;-80
2024/01/28 03:05:49;;;;;;;24.60;6.43;;;;;;;;;;5098873;28;20023;-79
2024/01/28 03:08:14;;;;;;;15.70;5.38;;;;;;;;;;5098663;28;20157;-79
2024/01/28 03:10:41;;;;;;;16.27;6.10;;;;;;;;;;5091333;28;20058;-79
2024/01/28 03:13:07;;;;;;;19.45;6.53;;;;;;;;;;5100486;28;20050;-79
2024/01/28 03:15:33;;;;;;;19.25;6.50;;;;;;;;;;5103523;28;20035;-79
2024/01/28 03:17:59;;;;;;;18.67;5.70;;;;;;;;;;5108157;28;20016;-78
2024/01/28 03:20:26;;;;;;;15.13;5.85;;;;;;;;;;5106697;28;20072;-79
2024/01/28 03:22:52;;;;;;;24.02;6.43;;;;;;;;;;5104718;28;20004;-79
2024/01/28 03:25:18;;;;;;;19.90;7.07;;;;;;;;;;5111787;28;20058;-79
2024/01/28 03:27:44;;;;;;;21.67;6.05;;;;;;;;;;5110112;28;20127;-80
2024/01/28 03:30:10;;;;;;;21.55;6.35;;;;;;;;;;5112427;28;20034;-80
2024/01/28 03:32:37;;;;;;;16.75;6.57;;;;;;;;;;5106164;28;20028;-81
2024/01/28 03:35:24;;;;;;;16.70;6.78;;;;;;;;;;5100539;28;20076;-81
2024/01/28 03:37:49;;;;;;;20.05;7.65;;;;;;;;;;5102731;28;20481;-79
2024/01/28 03:40:16;;;;;;;25.83;7.72;;;;;;;;;;5097874;28;20016;-80
2024/01/28 03:42:41;;;;;;;16.38;6.15;;;;;;;;;;5099503;28;20068;-79
2024/01/28 03:45:09;;;;;;;25.35;7.25;;;;;;;;;;5098839;28;20185;-81
2024/01/28 03:47:36;;;;;;;17.90;6.22;;;;;;;;;;5098865;28;20024;-79
2024/01/28 03:50:01;;;;;;;18.85;6.60;;;;;;;;;;5099398;28;20016;-78
2024/01/28 03:52:28;;;;;;;22.20;6.88;;;;;;;;;;5081679;28;20028;-80
2024/01/28 03:54:54;;;;;;;19.52;7.15;;;;;;;;;;5100337;28;20157;-79
2024/01/28 03:57:20;;;;;;;31.05;8.95;;;;;;;;;;5100714;28;20465;-80
2024/01/28 03:59:46;;;;;;;25.27;8.60;;;;;;;;;;5097108;28;20450;-80
2024/01/28 04:02:16;;;;;;;19.25;7.40;;;;;;;;;;5097610;28;20085;-81
2024/01/28 04:04:41;;;;;;;17.85;7.55;;;;;;;;;;5098271;28;20020;-79
2024/01/28 04:07:07;;;;;;;24.20;7.40;;;;;;;;;;5078610;28;20487;-79
2024/01/28 04:09:38;;;;;;;19.83;6.45;;;;;;;;;;5096336;28;20024;-79
2024/01/28 04:12:04;;;;;;;26.57;6.40;;;;;;;;;;5091547;28;20016;-80
2024/01/28 04:14:44;;;;;;;21.67;6.40;;;;;;;;;;5093301;28;20273;-80
2024/01/28 04:17:10;;;;;;;19.23;6.57;;;;;;;;;;5093755;28;20091;-78
2024/01/28 04:19:36;;;;;;;16.90;7.03;;;;;;;;;;5097356;28;20222;-79
2024/01/28 04:22:02;;;;;;;25.20;7.50;;;;;;;;;;5098556;28;20141;-80
2024/01/28 04:24:28;;;;;;;26.48;6.38;;;;;;;;;;5099365;28;20027;-79
2024/01/28 04:26:55;;;;;;;14.73;5.88;;;;;;;;;;5102446;28;20020;-78
2024/01/28 04:29:22;;;;;;;25.33;6.57;;;;;;;;;;5101466;28;20040;-78
2024/01/28 04:31:48;;;;;;;22.35;7.25;;;;;;;;;;5104174;28;20076;-79
2024/01/28 04:34:14;;;;;;;20.38;7.03;;;;;;;;;;5104081;28;20212;-80
2024/01/28 04:36:40;;;;;;;22.85;6.18;;;;;;;;;;5104201;28;20453;-78
2024/01/28 04:39:07;;;;;;;23.20;6.03;;;;;;;;;;5087256;28;20322;-79
2024/01/28 04:41:33;;;;;;;21.50;7.18;;;;;;;;;;5105013;28;20557;-79
2024/01/28 04:43:58;;;;;;;19.20;6.32;;;;;;;;;;5106568;28;20094;-79
2024/01/28 04:46:23;;;;;;;18.25;6.35;;;;;;;;;;5103080;28;20020;-78
2024/01/28 04:48:50;;;;;;;23.23;6.75;;;;;;;;;;5100675;28;20091;-80
2024/01/28 04:51:18;;;;;;;19.90;6.35;;;;;;;;;;5099633;28;21074;-78
2024/01/28 04:53:45;;;;;;;19.33;6.20;;;;;;;;;;5099187;28;20099;-78
2024/01/28 04:56:11;;;;;;;14.95;5.60;;;;;;;;;;5081390;28;20474;-79
2024/01/28 04:58:37;;;;;;;21.05;6.20;;;;;;;;;;5080956;28;20040;-81
2024/01/28 05:01:04;;;;;;;24.00;6.40;;;;;;;;;;5098919;28;20016;-79
2024/01/28 05:03:29;;;;;;;22.55;6.05;;;;;;;;;;5080080;28;20036;-80
2024/01/28 05:05:55;;;;;;;18.83;6.22;;;;;;;;;;5100891;28;20024;-80
2024/01/28 05:08:22;;;;;;;16.50;6.28;;;;;;;;;;5104557;28;20032;-80
2024/01/28 05:10:48;;;;;;;24.08;6.45;;;;;;;;;;5106815;28;20024;-78
2024/01/28 05:13:15;;;;;;;21.10;6.70;;;;;;;;;;5107478;28;20019;-79
2024/01/28 05:15:41;;;;;;;20.10;6.55;;;;;;;;;;5086585;28;20380;-78
2024/01/28 05:18:07;;;;;;;21.83;7.30;;;;;;;;;;5101245;28;20023;-80
2024/01/28 05:20:32;;;;;;;18.20;6.35;;;;;;;;;;5102479;28;20020;-78
2024/01/28 05:22:59;;;;;;;17.92;6.30;;;;;;;;;;5104094;28;20020;-78
2024/01/28 05:25:33;;;;;;;27.90;7.13;;;;;;;;;;5081758;28;20032;-78
2024/01/28 05:27:59;;;;;;;23.60;7.45;;;;;;;;;;5077824;28;20048;-78
2024/01/28 05:30:25;;;;;;;17.20;7.35;;;;;;;;;;5079885;28;20435;-78
2024/01/28 05:32:53;;;;;;;19.92;6.72;;;;;;;;;;5081740;28;20049;-79
2024/01/28 05:35:20;;;;;;;21.77;5.65;;;;;;;;;;5082142;28;20054;-79
2024/01/28 05:37:45;;;;;;;21.95;6.35;;;;;;;;;;5083844;28;20025;-79
2024/01/28 05:40:28;;;;;;;23.95;6.53;;;;;;;;;;5081437;28;20039;-79
2024/01/28 05:42:54;;;;;;;17.65;5.72;;;;;;;;;;5079957;28;20067;-78
2024/01/28 05:45:19;;;;;;;18.33;7.00;;;;;;;;;;5084351;28;20029;-79
2024/01/28 05:47:46;;;;;;;21.45;6.88;;;;;;;;;;5083640;28;20523;-79
2024/01/28 05:50:12;;;;;;;17.65;6.50;;;;;;;;;;5078453;28;20074;-78
2024/01/28 05:52:37;;;;;;;22.33;6.18;;;;;;;;;;5078764;28;20019;-80
2024/01/28 05:55:07;;;;;;;21.40;5.68;;;;;;;;;;5078560;28;20029;-80
2024/01/28 05:57:32;;;;;;;20.45;6.03;;;;;;;;;;5078404;28;20082;-79
2024/01/28 06:00:06;;;;;;;19.92;6.63;;;;;;;;;;5078339;28;20024;-80
2024/01/28 06:02:32;;;;;;;22.65;6.28;;;;;;;;;;5078981;28;20480;-80
2024/01/28 06:04:57;;;;;;;21.73;6.05;;;;;;;;;;5078054;28;20381;-79
2024/01/28 06:07:25;;;;;;;22.17;6.50;;;;;;;;;;5080974;28;20016;-78
2024/01/28 06:09:50;;;;;;;28.83;7.63;;;;;;;;;;5088078;28;20027;-79
2024/01/28 06:12:15;;;;;;;17.05;5.80;;;;;;;;;;5093522;28;20028;-80
2024/01/28 06:14:42;;;;;;;18.27;6.20;;;;;;;;;;5085606;28;20044;-79
2024/01/28 06:17:09;;;;;;;17.58;6.40;;;;;;;;;;5088552;28;20012;-78
2024/01/28 06:19:35;;;;;;;19.38;5.68;;;;;;;;;;5086998;28;20531;-79
2024/01/28 06:22:02;;;;;;;18.35;6.47;;;;;;;;;;5081211;28;20024;-80
2024/01/28 06:24:30;;;;;;;13.25;5.95;;;;;;;;;;5083415;28;20047;-79
2024/01/28 06:26:58;;;;;;;18.38;5.60;;;;;;;;;;5077983;28;20032;-79
2024/01/28 06:29:25;;;;;;;19.75;6.25;;;;;;;;;;5093498;28;20055;-79
2024/01/28 06:31:50;;;;;;;29.88;6.18;;;;;;;;;;5097946;28;20080;-78
2024/01/28 06:34:20;;;;;;;22.58;6.63;;;;;;;;;;5100021;28;20107;-78
2024/01/28 06:36:48;;;;;;;18.50;5.97;;;;;;;;;;5096326;28;20042;-79
2024/01/28 06:39:14;;;;;;;20.13;6.72;;;;;;;;;;5098373;28;20012;-79
2024/01/28 06:41:43;;;;;;;14.55;5.68;;;;;;;;;;5097371;28;20023;-78
2024/01/28 06:44:09;;;;;;;17.38;6.35;;;;;;;;;;5097344;28;20487;-79
2024/01/28 06:46:35;;;;;;;17.52;6.25;;;;;;;;;;5097100;28;20537;-79
2024/01/28 06:49:03;;;;;;;13.52;6.75;;;;;;;;;;5097841;28;20117;-79
2024/01/28 06:51:29;;;;;;;15.75;6.68;;;;;;;;;;5097953;28;20081;-80
2024/01/28 06:53:57;;;;;;;17.05;6.47;;;;;;;;;;5079675;28;20039;-79
2024/01/28 06:56:23;;;;;;;18.65;7.32;;;;;;;;;;5096217;28;20460;-78
2024/01/28 06:58:49;;;;;;;20.80;6.15;;;;;;;;;;5097233;28;20020;-79
2024/01/28 07:01:20;;;;;;;16.90;6.10;;;;;;;;;;5096086;28;20085;-78
2024/01/28 07:03:46;;;;;;;19.80;6.25;;;;;;;;;;5063810;28;20015;-79
2024/01/28 07:06:14;;;;;;;23.30;7.22;;;;;;;;;;5100848;28;20036;-79
2024/01/28 07:08:40;;;;;;;17.13;6.78;;;;;;;;;;5101110;28;20016;-79
2024/01/28 07:11:05;;;;;;;16.75;6.38;;;;;;;;;;5083416;28;20016;-79
2024/01/28 07:13:30;;;;;;;18.63;6.68;;;;;;;;;;5085703;28;20024;-78
2024/01/28 07:15:58;;;;;;;22.50;6.75;;;;;;;;;;5085155;28;20027;-80
2024/01/28 07:18:23;;;;;;;19.73;6.40;;;;;;;;;;5093408;28;20016;-79
2024/01/28 07:20:48;;;;;;;18.50;6.30;;;;;;;;;;5103177;28;20081;-80
2024/01/28 07:23:14;;;;;;;22.30;6.75;;;;;;;;;;5083742;28;20024;-82
2024/01/28 07:25:40;;;;;;;18.00;6.35;;;;;;;;;;5082186;28;20016;-79
2024/01/28 07:28:06;;;;;;;20.73;6.15;;;;;;;;;;5075435;28;20036;-79
2024/01/28 07:30:31;;;;;;;18.25;7.32;;;;;;;;;;5076503;28;20038;-80
2024/01/28 07:32:58;;;;;;;17.67;6.32;;;;;;;;;;5075323;28;20016;-80
2024/01/28 07:35:24;;;;;;;19.10;6.97;;;;;;;;;;5073712;28;20115;-80
2024/01/28 07:37:49;;;;;;;25.23;6.60;;;;;;;;;;5076623;28;20012;-79
2024/01/28 07:40:16;;;;;;;21.77;7.00;;;;;;;;;;5077430;28;20016;-79
2024/01/28 07:42:41;;;;;;;22.30;7.40;;;;;;;;;;5077501;28;20408;-79
2024/01/28 07:45:07;;;;;;;21.90;6.78;;;;;;;;;;5075394;28;20028;-79
2024/01/28 07:47:32;;;;;;;20.38;6.53;;;;;;;;;;5074845;28;20024;-78
2024/01/28 07:49:59;;;;;;;19.98;7.53;;;;;;;;;;5074790;28;20056;-76
2024/01/28 07:52:25;;;;;;;18.45;7.38;;;;;;;;;;5075243;28;20095;-80
2024/01/28 07:54:53;;;;;;;24.20;6.90;;;;;;;;;;5078414;28;20032;-83
2024/01/28 07:57:18;;;;;;;17.20;6.47;;;;;;;;;;5077408;28;20025;-80
2024/01/28 07:59:46;;;;;;;24.30;8.07;;;;;;;;;;5078190;28;20031;-83
2024/01/28 08:02:12;;;;;;;18.30;7.03;;;;;;;;;;5074709;28;20017;-79
2024/01/28 08:04:39;;;;;;;13.82;7.25;;;;;;;;;;5074383;28;20035;-81
2024/01/28 08:07:05;;;;;;;22.10;7.85;;;;;;;;;;5074744;28;20025;-81
2024/01/28 08:09:33;;;;;;;19.92;6.85;;;;;;;;;;5074825;28;20024;-79
2024/01/28 08:11:59;;;;;;;20.52;7.07;;;;;;;;;;5074485;28;20048;-81
2024/01/28 08:14:27;;;;;;;19.40;6.85;;;;;;;;;;5073113;28;20416;-81
2024/01/28 08:16:54;;;;;;;18.98;6.93;;;;;;;;;;5073311;28;20063;-79
2024/01/28 08:19:35;;;;;;;20.95;7.03;;;;;;;;;;5073741;28;20075;-79
2024/01/28 08:22:02;;;;;;;16.30;6.78;;;;;;;;;;5074110;28;20119;-79
2024/01/28 08:24:29;;;;;;;12.77;5.97;;;;;;;;;;5073055;28;20407;-77
2024/01/28 08:26:54;;;;;;;20.00;6.32;;;;;;;;;;5074240;28;20480;-82
2024/01/28 08:29:20;;;;;;;18.55;6.45;;;;;;;;;;5091657;28;20107;-80
2024/01/28 08:31:45;;;;;;;18.70;6.22;;;;;;;;;;5095275;28;20069;-81
2024/01/28 08:34:12;;;;;;;21.92;6.00;;;;;;;;;;5087987;28;20020;-81
2024/01/28 08:36:37;;;;;;;19.63;5.68;;;;;;;;;;5094184;28;20111;-82
2024/01/28 08:39:05;;;;;;;27.13;6.95;;;;;;;;;;5094433;28;20043;-81
2024/01/28 08:41:32;;;;;;;24.10;6.10;;;;;;;;;;5095100;28;20020;-82
2024/01/28 08:43:59;;;;;;;16.10;6.25;;;;;;;;;;5093202;28;20028;-76
2024/01/28 08:46:26;;;;;;;17.70;6.40;;;;;;;;;;5074810;28;20036;-77
2024/01/28 08:48:54;;;;;;;21.40;7.38;;;;;;;;;;5094036;28;20012;-78
2024/01/28 08:51:20;;;;;;;25.85;6.78;;;;;;;;;;5093759;28;20032;-77
2024/01/28 08:53:55;;;;;;;24.42;7.53;;;;;;;;;;5093917;28;20023;-77
2024/01/28 08:56:22;;;;;;;18.40;6.68;;;;;;;;;;5093877;28;20024;-80
2024/01/28 08:58:49;;;;;;;14.32;6.25;;;;;;;;;;5094690;28;20099;-83
2024/01/28 09:01:16;;;;;;;22.58;6.63;;;;;;;;;;5097991;28;20020;-83
2024/01/28 09:03:41;;;;;;;20.35;7.32;;;;;;;;;;5098269;28;20020;-83
2024/01/28 09:06:08;;;;;;;21.00;6.90;;;;;;;;;;5100891;28;20043;-82
2024/01/28 09:08:33;;;;;;;24.42;7.03;;;;;;;;;;5098913;28;20362;-77
2024/01/28 09:11:01;;;;;;;26.67;7.50;;;;;;;;;;5097199;28;20020;-79
2024/01/28 09:13:29;;;;;;;22.42;7.70;;;;;;;;;;5099998;28;20031;-82
2024/01/28 09:16:00;;;;;;;21.60;7.72;;;;;;;;;;5100210;28;20409;-80
2024/01/28 09:18:25;;;;;;;17.65;6.82;;;;;;;;;;5093619;28;20020;-79
2024/01/28 09:20:53;;;;;;;25.05;7.95;;;;;;;;;;5098112;28;20372;-82
2024/01/28 09:23:19;;;;;;;22.70;7.38;;;;;;;;;;5097423;28;20094;-84
2024/01/28 09:25:47;;;;;;;24.10;8.10;;;;;;;;;;5079270;28;20161;-83
2024/01/28 09:28:12;;;;;;;24.27;7.63;;;;;;;;;;5097407;28;20118;-85
2024/01/28 09:30:41;;;;;;;23.67;6.97;;;;;;;;;;5097151;28;20020;-81
2024/01/28 09:33:08;;;;;;;27.02;7.75;;;;;;;;;;5097945;28;20027;-88
2024/01/28 09:35:33;;;;;;;23.05;8.10;;;;;;;;;;5100231;28;20024;-87
2024/01/28 09:37:58;;;;;;;23.77;7.78;;;;;;;;;;5099335;28;20070;-88
2024/01/28 09:40:24;;;;;;;22.48;6.60;;;;;;;;;;5100767;28;20118;-89
2024/01/28 09:42:59;;;;;;;17.73;6.90;;;;;;;;;;5082969;28;20012;-89
2024/01/28 09:45:45;;;;;;;29.17;8.30;;;;;;;;;;5088153;28;20027;-88
2024/01/28 09:48:12;;;;;;;22.88;7.05;;;;;;;;;;5103207;28;20091;-87
2024/01/28 09:50:39;;;;;;;24.85;7.65;;;;;;;;;;5085582;28;20036;-86
2024/01/28 09:53:06;;;;;;;20.08;7.53;;;;;;;;;;5105113;28;20079;-87
2024/01/28 09:55:53;;;;;;;22.70;8.27;;;;;;;;;;5101774;28;20109;-86
2024/01/28 09:58:18;;;;;;;26.00;8.18;;;;;;;;;;5098088;28;20022;-82
2024/01/28 10:00:52;;;;;;;19.25;7.30;;;;;;;;;;5097922;28;20095;-85
2024/01/28 10:03:19;;;;;;;26.90;7.32;;;;;;;;;;5078723;28;20031;-82
2024/01/28 10:05:45;;;;;;;20.58;7.95;;;;;;;;;;5078691;28;20085;-81
2024/01/28 10:08:13;;;;;;;18.58;7.47;;;;;;;;;;5097052;28;20052;-84
2024/01/28 10:10:40;;;;;;;27.55;7.55;;;;;;;;;;5078900;28;20449;-83
2024/01/28 10:13:07;;;;;;;28.85;8.63;;;;;;;;;;5097032;28;20053;-82
2024/01/28 10:15:33;;;;;;;24.60;7.70;;;;;;;;;;5097233;28;20028;-82
2024/01/28 10:18:06;;;;;;;22.67;8.00;;;;;;;;;;5079749;28;20020;-82
2024/01/28 10:20:33;;;;;;;19.50;7.40;;;;;;;;;;5098304;28;20026;-79
2024/01/28 10:23:13;;;;;;;23.25;7.82;;;;;;;;;;5077888;28;20519;-81
2024/01/28 10:25:40;;;;;;;18.40;7.47;;;;;;;;;;5095967;28;20032;-80
2024/01/28 10:28:08;;;;;;;17.75;6.03;;;;;;;;;;5095448;28;20052;-79
2024/01/28 10:30:35;;;;;;;24.42;6.85;;;;;;;;;;5078021;28;20047;-80
2024/01/28 10:33:02;;;;;;;22.33;6.63;;;;;;;;;;5095803;28;20115;-81
2024/01/28 10:35:29;;;;;;;25.50;6.95;;;;;;;;;;5077666;28;20067;-81
2024/01/28 10:37:56;;;;;;;26.35;6.53;;;;;;;;;;5095907;28;20009;-80
2024/01/28 10:40:37;;;;;;;19.92;6.72;;;;;;;;;;5094063;28;20085;-79
2024/01/28 10:43:03;;;;;;;23.30;6.68;;;;;;;;;;5096567;28;20081;-80
2024/01/28 10:45:44;;;;;;;21.75;6.57;;;;;;;;;;5077130;28;20464;-80
2024/01/28 10:48:16;;;;;;;26.17;6.90;;;;;;;;;;5093212;28;20115;-78
2024/01/28 10:50:44;;;;;;;18.40;6.20;;;;;;;;;;5059499;28;20098;-79
2024/01/28 10:53:12;;;;;;;25.08;6.50;;;;;;;;;;5094240;28;20015;-81
2024/01/28 10:55:39;;;;;;;21.73;7.20;;;;;;;;;;5093864;28;20030;-79
2024/01/28 10:58:04;;;;;;;19.35;6.85;;;;;;;;;;5075710;28;20020;-80
2024/01/28 11:00:30;;;;;;;18.90;6.68;;;;;;;;;;5077587;28;20365;-80
2024/01/28 11:02:58;;;;;;;20.08;6.22;;;;;;;;;;5078119;28;20055;-79
2024/01/28 11:05:28;;;;;;;17.40;6.78;;;;;;;;;;5090917;28;20020;-82
2024/01/28 11:08:15;;;;;;;18.30;5.57;;;;;;;;;;5094906;28;20016;-80
2024/01/28 11:10:42;;;;;;;26.05;6.22;;;;;;;;;;5093981;28;20050;-82
2024/01/28 11:13:10;;;;;;;19.15;5.95;;;;;;;;;;5094961;28;20047;-82
2024/01/28 11:15:36;;;;;;;15.02;6.13;;;;;;;;;;5060990;28;20020;-79
2024/01/28 11:18:06;;;;;;;12.75;5.15;;;;;;;;;;5096430;28;20016;-81
2024/01/28 11:20:33;;;;;;;22.88;6.07;;;;;;;;;;5095860;28;20016;-80
2024/01/28 11:23:00;;;;;;;18.83;5.22;;;;;;;;;;5061790;28;20041;-80
2024/01/28 11:25:26;;;;;;;13.65;4.40;;;;;;;;;;5095295;28;20044;-79
2024/01/28 11:28:02;;;;;;;22.55;5.05;;;;;;;;;;5072713;28;20051;-77
2024/01/28 11:30:27;;;;;;;15.88;4.50;;;;;;;;;;5069666;28;20024;-78
2024/01/28 11:33:08;;;;;;;20.33;5.13;;;;;;;;;;5056397;28;20120;-78
2024/01/28 11:35:33;;;;;;;21.08;5.70;;;;;;;;;;5086785;28;20026;-81
2024/01/28 11:38:01;;;;;;;17.40;5.63;;;;;;;;;;5073095;28;20020;-80
2024/01/28 11:40:47;;;;;;;17.80;5.80;;;;;;;;;;5074863;28;20016;-77
2024/01/28 11:43:14;;;;;;;15.20;4.63;;;;;;;;;;5072834;28;20019;-81
2024/01/28 11:45:39;;;;;;;15.25;5.40;;;;;;;;;;5074216;28;20024;-82
2024/01/28 11:48:09;;;;;;;23.33;6.20;;;;;;;;;;5074036;28;20351;-80
2024/01/28 11:50:35;;;;;;;12.55;4.75;;;;;;;;;;5072921;28;20060;-80
2024/01/28 11:53:00;;;;;;;20.40;5.13;;;;;;;;;;5072708;28;20102;-79
2024/01/28 11:55:27;;;;;;;20.80;6.20;;;;;;;;;;5073779;28;20318;-80
2024/01/28 11:57:52;;;;;;;18.25;5.05;;;;;;;;;;5072635;28;20082;-79
2024/01/28 12:00:26;;;;;;;17.25;5.57;;;;;;;;;;5073686;28;20413;-83
2024/01/28 12:02:52;;;;;;;19.90;5.78;;;;;;;;;;5073540;28;20412;-80
2024/01/28 12:05:18;;;;;;;15.02;4.45;;;;;;;;;;5073424;28;20044;-78
2024/01/28 12:07:46;;;;;;;16.60;5.60;;;;;;;;;;5073781;28;20029;-78
2024/01/28 12:10:12;;;;;;;20.27;5.70;;;;;;;;;;5055400;28;20052;-80
2024/01/28 12:12:44;;;;;;;16.27;4.97;;;;;;;;;;5073915;28;20048;-81
2024/01/28 12:15:12;;;;;;;11.45;4.72;;;;;;;;;;5062677;28;20128;-80
2024/01/28 12:17:38;;;;;;;16.48;4.15;;;;;;;;;;5071991;28;20028;-80
2024/01/28 12:20:03;;;;;;;11.68;4.50;;;;;;;;;;5055822;28;20010;-79
2024/01/28 12:22:39;;;;;;;16.45;4.93;;;;;;;;;;5072971;28;20492;-78
2024/01/28 12:25:10;;;;;;;12.98;3.78;;;;;;;;;;5072669;28;20021;-82
2024/01/28 12:27:36;;;;;;;12.57;4.38;;;;;;;;;;5075115;28;20017;-79
2024/01/28 12:30:03;;;;;;;12.10;3.10;;;;;;;;;;5094100;28;20034;-79
2024/01/28 12:32:29;;;;;;;8.55;2.47;;;;;;;;;;5076152;28;20028;-80
2024/01/28 12:35:03;;;;;;;11.82;3.15;;;;;;;;;;5094136;28;20024;-79
2024/01/28 12:37:30;;;;;;;7.18;2.35;;;;;;;;;;5092555;28;20079;-78
2024/01/28 12:39:56;;;;;;;9.98;2.70;;;;;;;;;;5079783;28;20129;-77
2024/01/28 12:42:22;;;;;;;14.15;5.18;;;;;;;;;;5097662;28;20453;-76
2024/01/28 12:44:49;;;;;;;7.13;3.40;;;;;;;;;;5097507;28;20048;-75
2024/01/28 12:47:14;;;;;;;9.23;2.17;;;;;;;;;;5097746;28;20483;-78
2024/01/28 12:49:40;;;;;;;9.50;2.80;;;;;;;;;;5097753;28;20016;-77
2024/01/28 12:52:06;;;;;;;12.73;3.08;;;;;;;;;;5097810;28;20058;-80
2024/01/28 12:54:32;;;;;;;8.45;3.03;;;;;;;;;;5079350;28;20028;-77
2024/01/28 12:56:59;;;;;;;7.03;2.42;;;;;;;;;;5079698;28;20054;-78
2024/01/28 12:59:26;;;;;;;9.82;3.53;;;;;;;;;;5099387;28;20062;-81
2024/01/28 13:01:57;;;;;;;12.20;3.88;;;;;;;;;;5097688;28;20019;-78
2024/01/28 13:04:23;;;;;;;8.73;3.13;;;;;;;;;;5097691;28;20016;-80
2024/01/28 13:06:49;;;;;;;9.77;3.45;;;;;;;;;;5080472;28;20032;-79
2024/01/28 13:09:15;;;;;;;12.23;3.28;;;;;;;;;;5079719;28;20019;-78
2024/01/28 13:11:41;;;;;;;12.25;3.75;;;;;;;;;;5097564;28;20012;-79
2024/01/28 13:14:07;;;;;;;8.02;4.00;;;;;;;;;;5097529;28;20103;-82
2024/01/28 13:16:33;;;;;;;14.63;4.63;;;;;;;;;;5097090;28;20141;-80
2024/01/28 13:18:58;;;;;;;13.38;3.65;;;;;;;;;;5097581;28;20023;-78
2024/01/28 13:21:25;;;;;;;13.18;3.33;;;;;;;;;;5097714;28;20430;-80
2024/01/28 13:23:52;;;;;;;8.55;2.92;;;;;;;;;;5080064;28;20019;-78
2024/01/28 13:26:25;;;;;;;9.93;3.25;;;;;;;;;;5098497;28;20026;-79
2024/01/28 13:28:52;;;;;;;12.52;3.88;;;;;;;;;;5099074;28;20054;-79
2024/01/28 13:31:22;;;;;;;12.02;3.85;;;;;;;;;;5100692;28;20099;-78
2024/01/28 13:33:48;;;;;;;14.30;3.58;;;;;;;;;;5093350;28;20027;-81
2024/01/28 13:36:14;;;;;;;14.77;3.90;;;;;;;;;;5097879;28;20103;-80
2024/01/28 13:38:43;;;;;;;14.68;3.78;;;;;;;;;;5097202;28;20406;-80
2024/01/28 13:41:09;;;;;;;13.70;3.83;;;;;;;;;;5097351;28;20089;-82
2024/01/28 13:43:36;;;;;;;11.77;3.45;;;;;;;;;;5097351;28;20105;-78
2024/01/28 13:46:02;;;;;;;10.48;3.72;;;;;;;;;;5096543;28;20043;-77
2024/01/28 13:48:49;;;;;;;13.40;3.53;;;;;;;;;;5078392;28;20056;-79
2024/01/28 13:51:14;;;;;;;16.73;3.80;;;;;;;;;;5094928;28;20039;-78
2024/01/28 13:53:40;;;;;;;12.05;3.47;;;;;;;;;;5096399;28;20023;-77
2024/01/28 13:56:26;;;;;;;14.05;3.47;;;;;;;;;;5096789;28;20013;-77
2024/01/28 13:58:56;;;;;;;6.35;2.30;;;;;;;;;;5094587;28;20023;-77
2024/01/28 14:01:23;;;;;;;10.32;3.10;;;;;;;;;;5096856;28;20461;-80
2024/01/28 14:03:50;;;;;;;11.32;2.55;;;;;;;;;;5078541;28;20012;-79
2024/01/28 14:06:21;;;;;;;9.20;3.03;;;;;;;;;;5096642;28;20023;-83
2024/01/28 14:08:49;;;;;;;14.57;3.65;;;;;;;;;;5088677;28;20073;-81
2024/01/28 14:11:15;;;;;;;9.25;3.03;;;;;;;;;;5096585;28;20024;-77
2024/01/28 14:13:42;;;;;;;5.45;2.40;;;;;;;;;;5070438;28;20423;-79
2024/01/28 14:16:08;;;;;;;13.02;3.25;;;;;;;;;;5095785;28;20473;-76
2024/01/28 14:18:34;;;;;;;10.65;2.97;;;;;;;;;;5092481;28;20051;-76
2024/01/28 14:21:00;;;;;;;4.75;2.60;;;;;;;;;;5077719;28;20469;-78
2024/01/28 14:23:26;;;;;;;10.20;2.97;;;;;;;;;;5077358;28;20016;-78
2024/01/28 14:25:51;;;;;;;7.68;3.15;;;;;;;;;;5077135;28;20106;-75
2024/01/28 14:28:17;;;;;;;13.95;2.80;;;;;;;;;;5073618;28;20037;-80
2024/01/28 14:30:42;;;;;;;14.45;3.58;;;;;;;;;;5075369;28;20028;-79
2024/01/28 14:33:09;;;;;;;9.32;2.92;;;;;;;;;;5075631;28;20031;-79